createdAt,value
2017-05-13T00:00:00.973Z,73178
2017-05-13T00:00:10.780Z,73176
2017-05-13T00:00:20.584Z,73175
2017-05-13T00:00:30.675Z,73180
2017-05-13T00:00:40.819Z,73175
2017-05-13T00:00:50.917Z,73176
2017-05-13T00:01:01.009Z,73176
2017-05-13T00:01:11.103Z,73175
2017-05-13T00:01:21.191Z,73176
2017-05-13T00:01:30.994Z,73176
2017-05-13T00:01:41.093Z,73177
2017-05-13T00:01:50.892Z,73177
2017-05-13T00:02:00.409Z,73177
2017-05-13T00:02:10.504Z,73178
2017-05-13T00:02:20.592Z,73178
2017-05-13T00:02:30.681Z,73178
2017-05-13T00:02:40.767Z,73177
2017-05-13T00:02:50.878Z,73176
2017-05-13T00:03:00.683Z,73174
2017-05-13T00:03:10.826Z,73175
2017-05-13T00:03:20.918Z,73180
2017-05-13T00:03:30.725Z,73175
2017-05-13T00:03:40.532Z,73174
2017-05-13T00:03:50.336Z,73176
2017-05-13T00:04:00.423Z,73177
2017-05-13T00:04:10.513Z,73174
2017-05-13T00:04:20.608Z,73173
2017-05-13T00:04:30.438Z,73179
2017-05-13T00:04:40.540Z,73176
2017-05-13T00:04:50.637Z,73175
2017-05-13T00:05:00.444Z,73176
2017-05-13T00:05:10.241Z,73176
2017-05-13T00:05:20.049Z,73180
2017-05-13T00:05:30.136Z,73176
2017-05-13T00:05:40.229Z,73175
2017-05-13T00:05:50.315Z,73174
2017-05-13T00:06:00.447Z,73178
2017-05-13T00:06:10.541Z,73178
2017-05-13T00:06:20.633Z,73175
2017-05-13T00:06:30.730Z,73174
2017-05-13T00:06:40.819Z,73173
2017-05-13T00:06:50.908Z,73177
2017-05-13T00:07:00.426Z,73176
2017-05-13T00:07:09.936Z,73178
2017-05-13T00:07:20.022Z,73174
2017-05-13T00:07:30.112Z,73176
2017-05-13T00:07:40.213Z,73174
2017-05-13T00:07:50.304Z,73175
2017-05-13T00:08:00.398Z,73177
2017-05-13T00:08:09.908Z,73178
2017-05-13T00:08:19.147Z,73178
2017-05-13T00:08:29.241Z,73177
2017-05-13T00:08:38.759Z,73177
2017-05-13T00:08:48.855Z,73176
2017-05-13T00:08:58.379Z,73178
2017-05-13T00:09:07.606Z,73177
2017-05-13T00:09:17.123Z,73175
2017-05-13T00:09:27.212Z,73175
2017-05-13T00:09:37.308Z,73177
2017-05-13T00:09:47.398Z,73176
2017-05-13T00:09:57.207Z,73175
2017-05-13T00:10:07.019Z,73177
2017-05-13T00:10:16.534Z,73175
2017-05-13T00:10:26.336Z,73172
2017-05-13T00:10:36.428Z,73175
2017-05-13T00:10:46.524Z,73176
2017-05-13T00:10:56.611Z,73173
2017-05-13T00:11:06.418Z,73173
2017-05-13T00:11:16.507Z,73175
2017-05-13T00:11:26.600Z,73173
2017-05-13T00:11:36.698Z,73174
2017-05-13T00:11:46.498Z,73178
2017-05-13T00:11:56.584Z,73171
2017-05-13T00:12:06.677Z,73170
2017-05-13T00:12:16.480Z,73173
2017-05-13T00:12:26.286Z,73174
2017-05-13T00:12:36.388Z,73175
2017-05-13T00:12:46.197Z,73174
2017-05-13T00:12:56.291Z,73171
2017-05-13T00:13:06.382Z,73172
2017-05-13T00:13:16.181Z,73176
2017-05-13T00:13:26.273Z,73176
2017-05-13T00:13:36.075Z,73173
2017-05-13T00:13:46.178Z,73175
2017-05-13T00:13:56.277Z,73174
2017-05-13T00:14:06.383Z,73175
2017-05-13T00:14:16.188Z,73175
2017-05-13T00:14:26.285Z,73176
2017-05-13T00:14:36.095Z,73175
2017-05-13T00:14:46.191Z,73173
2017-05-13T00:14:56.286Z,73174
2017-05-13T00:15:06.100Z,73175
2017-05-13T00:15:16.196Z,73176
2017-05-13T00:15:26.292Z,73175
2017-05-13T00:15:36.380Z,73176
2017-05-13T00:15:46.471Z,73176
2017-05-13T00:15:56.561Z,73176
2017-05-13T00:16:06.658Z,73174
2017-05-13T00:16:16.747Z,73174
2017-05-13T00:16:26.841Z,73173
2017-05-13T00:16:36.643Z,73174
2017-05-13T00:16:46.446Z,73176
2017-05-13T00:16:56.536Z,73174
2017-05-13T00:17:06.342Z,73171
2017-05-13T00:17:16.153Z,73177
2017-05-13T00:17:26.242Z,73175
2017-05-13T00:17:36.339Z,73174
2017-05-13T00:17:46.430Z,73174
2017-05-13T00:17:56.524Z,73174
2017-05-13T00:18:06.615Z,73176
2017-05-13T00:18:16.711Z,73173
2017-05-13T00:18:26.517Z,73172
2017-05-13T00:18:36.326Z,73172
2017-05-13T00:18:46.420Z,73174
2017-05-13T00:18:56.514Z,73177
2017-05-13T00:19:06.602Z,73172
2017-05-13T00:19:16.699Z,73172
2017-05-13T00:19:26.789Z,73177
2017-05-13T00:19:36.884Z,73176
2017-05-13T00:19:46.980Z,73175
2017-05-13T00:19:57.072Z,73175
2017-05-13T00:20:07.165Z,73172
2017-05-13T00:20:16.972Z,73174
2017-05-13T00:20:27.064Z,73176
2017-05-13T00:20:36.870Z,73176
2017-05-13T00:20:46.678Z,73174
2017-05-13T00:20:56.775Z,73173
2017-05-13T00:21:06.583Z,73170
2017-05-13T00:21:16.674Z,73176
2017-05-13T00:21:26.777Z,73174
2017-05-13T00:21:36.866Z,73173
2017-05-13T00:21:46.390Z,73172
2017-05-13T00:21:56.483Z,73173
2017-05-13T00:22:06.578Z,73175
2017-05-13T00:22:16.377Z,73177
2017-05-13T00:22:26.182Z,73173
2017-05-13T00:22:36.322Z,73173
2017-05-13T00:22:46.411Z,73174
2017-05-13T00:22:56.505Z,73173
2017-05-13T00:23:06.602Z,73172
2017-05-13T00:23:16.689Z,73170
2017-05-13T00:23:25.920Z,73172
2017-05-13T00:23:36.015Z,73174
2017-05-13T00:23:46.117Z,73174
2017-05-13T00:23:56.212Z,73173
2017-05-13T00:24:06.306Z,73175
2017-05-13T00:24:16.399Z,73174
2017-05-13T00:24:26.207Z,73177
2017-05-13T00:24:36.299Z,73171
2017-05-13T00:24:46.396Z,73175
2017-05-13T00:24:56.491Z,73173
2017-05-13T00:25:06.587Z,73175
2017-05-13T00:25:16.688Z,73173
2017-05-13T00:25:26.777Z,73173
2017-05-13T00:25:36.871Z,73176
2017-05-13T00:25:46.671Z,73175
2017-05-13T00:25:56.767Z,73175
2017-05-13T00:26:06.569Z,73174
2017-05-13T00:26:16.663Z,73175
2017-05-13T00:26:26.468Z,73173
2017-05-13T00:26:36.555Z,73175
2017-05-13T00:26:46.647Z,73173
2017-05-13T00:26:56.454Z,73178
2017-05-13T00:27:06.544Z,73177
2017-05-13T00:27:16.641Z,73176
2017-05-13T00:27:26.728Z,73177
2017-05-13T00:27:36.819Z,73178
2017-05-13T00:27:46.909Z,73175
2017-05-13T00:27:56.722Z,73176
2017-05-13T00:28:06.816Z,73175
2017-05-13T00:28:16.612Z,73177
2017-05-13T00:28:26.714Z,73177
2017-05-13T00:28:36.809Z,73177
2017-05-13T00:28:46.625Z,73176
2017-05-13T00:28:56.156Z,73177
2017-05-13T00:29:05.673Z,73175
2017-05-13T00:29:15.769Z,73175
2017-05-13T00:29:25.864Z,73173
2017-05-13T00:29:35.948Z,73177
2017-05-13T00:29:46.044Z,73173
2017-05-13T00:29:56.139Z,73174
2017-05-13T00:30:05.949Z,73174
2017-05-13T00:30:15.760Z,73179
2017-05-13T00:30:25.848Z,73175
2017-05-13T00:30:35.942Z,73172
2017-05-13T00:30:45.749Z,73173
2017-05-13T00:30:55.843Z,73174
2017-05-13T00:31:05.976Z,73174
2017-05-13T00:31:15.781Z,73172
2017-05-13T00:31:25.305Z,73175
2017-05-13T00:31:35.398Z,73174
2017-05-13T00:31:45.200Z,73172
2017-05-13T00:31:55.348Z,73173
2017-05-13T00:32:05.444Z,73173
2017-05-13T00:32:15.568Z,73177
2017-05-13T00:32:25.374Z,73171
2017-05-13T00:32:35.475Z,73174
2017-05-13T00:32:45.567Z,73170
2017-05-13T00:32:55.384Z,73172
2017-05-13T00:33:05.478Z,73170
2017-05-13T00:33:15.281Z,73176
2017-05-13T00:33:25.085Z,73171
2017-05-13T00:33:34.892Z,73171
2017-05-13T00:33:44.992Z,73174
2017-05-13T00:33:55.083Z,73173
2017-05-13T00:34:05.173Z,73174
2017-05-13T00:34:14.980Z,73172
2017-05-13T00:34:25.073Z,73174
2017-05-13T00:34:34.877Z,73173
2017-05-13T00:34:44.973Z,73174
2017-05-13T00:34:55.073Z,73172
2017-05-13T00:35:05.171Z,73173
2017-05-13T00:35:15.267Z,73171
2017-05-13T00:35:25.072Z,73172
2017-05-13T00:35:34.881Z,73172
2017-05-13T00:35:44.972Z,73172
2017-05-13T00:35:55.065Z,73170
2017-05-13T00:36:04.873Z,73171
2017-05-13T00:36:14.675Z,73173
2017-05-13T00:36:24.476Z,73171
2017-05-13T00:36:34.564Z,73171
2017-05-13T00:36:44.655Z,73174
2017-05-13T00:36:54.751Z,73172
2017-05-13T00:37:04.842Z,73175
2017-05-13T00:37:14.648Z,73170
2017-05-13T00:37:24.733Z,73170
2017-05-13T00:37:34.835Z,73172
2017-05-13T00:37:44.925Z,73171
2017-05-13T00:37:55.013Z,73170
2017-05-13T00:38:05.106Z,73170
2017-05-13T00:38:15.194Z,73172
2017-05-13T00:38:24.754Z,73173
2017-05-13T00:38:34.849Z,73172
2017-05-13T00:38:44.649Z,73170
2017-05-13T00:38:54.742Z,73172
2017-05-13T00:39:04.830Z,73174
2017-05-13T00:39:14.633Z,73170
2017-05-13T00:39:24.437Z,73171
2017-05-13T00:39:34.530Z,73168
2017-05-13T00:39:44.617Z,73168
2017-05-13T00:39:54.708Z,73171
2017-05-13T00:40:04.802Z,73169
2017-05-13T00:40:14.605Z,73168
2017-05-13T00:40:24.410Z,73171
2017-05-13T00:40:34.506Z,73169
2017-05-13T00:40:44.601Z,73169
2017-05-13T00:40:54.696Z,73172
2017-05-13T00:41:04.790Z,73171
2017-05-13T00:41:14.886Z,73171
2017-05-13T00:41:24.976Z,73169
2017-05-13T00:41:35.068Z,73169
2017-05-13T00:41:45.164Z,73167
2017-05-13T00:41:55.304Z,73166
2017-05-13T00:42:05.106Z,73168
2017-05-13T00:42:15.200Z,73169
2017-05-13T00:42:25.300Z,73168
2017-05-13T00:42:35.389Z,73168
2017-05-13T00:42:45.482Z,73170
2017-05-13T00:42:55.286Z,73169
2017-05-13T00:43:05.374Z,73170
2017-05-13T00:43:14.887Z,73166
2017-05-13T00:43:24.975Z,73170
2017-05-13T00:43:35.063Z,73167
2017-05-13T00:43:45.155Z,73167
2017-05-13T00:43:55.254Z,73166
2017-05-13T00:44:05.347Z,73165
2017-05-13T00:44:14.865Z,73161
2017-05-13T00:44:24.666Z,73163
2017-05-13T00:44:34.191Z,73163
2017-05-13T00:44:43.995Z,73160
2017-05-13T00:44:53.794Z,73165
2017-05-13T00:45:03.890Z,73163
2017-05-13T00:45:13.700Z,73164
2017-05-13T00:45:23.788Z,73163
2017-05-13T00:45:33.879Z,73165
2017-05-13T00:45:43.979Z,73165
2017-05-13T00:45:53.785Z,73165
2017-05-13T00:46:03.881Z,73164
2017-05-13T00:46:13.692Z,73167
2017-05-13T00:46:23.785Z,73166
2017-05-13T00:46:33.873Z,73159
2017-05-13T00:46:43.965Z,73162
2017-05-13T00:46:54.063Z,73159
2017-05-13T00:47:04.160Z,73160
2017-05-13T00:47:14.247Z,73161
2017-05-13T00:47:24.339Z,73161
2017-05-13T00:47:34.145Z,73161
2017-05-13T00:47:44.246Z,73157
2017-05-13T00:47:54.342Z,73160
2017-05-13T00:48:04.147Z,73161
2017-05-13T00:48:14.241Z,73159
2017-05-13T00:48:24.338Z,73166
2017-05-13T00:48:34.147Z,73167
2017-05-13T00:48:43.371Z,73162
2017-05-13T00:48:53.175Z,73167
2017-05-13T00:49:03.273Z,73164
2017-05-13T00:49:13.367Z,73163
2017-05-13T00:49:22.891Z,73162
2017-05-13T00:49:32.694Z,73159
2017-05-13T00:49:42.501Z,73160
2017-05-13T00:49:52.593Z,73158
2017-05-13T00:50:02.162Z,73162
2017-05-13T00:50:11.972Z,73163
2017-05-13T00:50:21.778Z,73157
2017-05-13T00:50:31.865Z,73161
2017-05-13T00:50:41.673Z,73161
2017-05-13T00:50:51.767Z,73157
2017-05-13T00:51:01.868Z,73157
2017-05-13T00:51:11.386Z,73158
2017-05-13T00:51:21.478Z,73158
2017-05-13T00:51:31.572Z,73155
2017-05-13T00:51:41.378Z,73161
2017-05-13T00:51:51.467Z,73158
2017-05-13T00:52:01.568Z,73160
2017-05-13T00:52:11.372Z,73162
2017-05-13T00:52:21.502Z,73162
2017-05-13T00:52:31.306Z,73162
2017-05-13T00:52:41.401Z,73161
2017-05-13T00:52:51.493Z,73165
2017-05-13T00:53:01.588Z,73165
2017-05-13T00:53:11.683Z,73163
2017-05-13T00:53:21.778Z,73161
2017-05-13T00:53:31.876Z,73163
2017-05-13T00:53:41.683Z,73162
2017-05-13T00:53:51.779Z,73159
2017-05-13T00:54:01.586Z,73163
2017-05-13T00:54:11.386Z,73158
2017-05-13T00:54:20.908Z,73157
2017-05-13T00:54:31.003Z,73157
2017-05-13T00:54:40.811Z,73159
2017-05-13T00:54:50.621Z,73161
2017-05-13T00:55:00.429Z,73158
2017-05-13T00:55:09.947Z,73160
2017-05-13T00:55:19.461Z,73160
2017-05-13T00:55:29.557Z,73158
2017-05-13T00:55:39.365Z,73159
2017-05-13T00:55:49.451Z,73161
2017-05-13T00:55:59.542Z,73155
2017-05-13T00:56:09.633Z,73158
2017-05-13T00:56:19.147Z,73160
2017-05-13T00:56:28.951Z,73159
2017-05-13T00:56:38.759Z,73159
2017-05-13T00:56:48.560Z,73160
2017-05-13T00:56:58.649Z,73158
2017-05-13T00:57:08.455Z,73160
2017-05-13T00:57:17.967Z,73154
2017-05-13T00:57:27.775Z,73159
2017-05-13T00:57:37.867Z,73157
2017-05-13T00:57:47.965Z,73159
2017-05-13T00:57:58.075Z,73155
2017-05-13T00:58:08.178Z,73158
2017-05-13T00:58:17.696Z,73158
2017-05-13T00:58:27.796Z,73158
2017-05-13T00:58:37.885Z,73161
2017-05-13T00:58:47.975Z,73163
2017-05-13T00:58:58.059Z,73161
2017-05-13T00:59:08.152Z,73161
2017-05-13T00:59:17.671Z,73162
2017-05-13T00:59:27.817Z,73161
2017-05-13T00:59:37.903Z,73162
2017-05-13T00:59:47.993Z,73165
2017-05-13T00:59:58.090Z,73161
2017-05-13T01:00:08.180Z,73162
2017-05-13T01:00:18.033Z,73160
2017-05-13T01:00:27.838Z,73163
2017-05-13T01:00:37.926Z,73161
2017-05-13T01:00:48.015Z,73161
2017-05-13T01:00:58.104Z,73165
2017-05-13T01:01:08.198Z,73167
2017-05-13T01:01:18.003Z,73163
2017-05-13T01:01:27.809Z,73164
2017-05-13T01:01:37.897Z,73168
2017-05-13T01:01:47.992Z,73165
2017-05-13T01:01:58.083Z,73160
2017-05-13T01:02:08.176Z,73163
2017-05-13T01:02:17.690Z,73164
2017-05-13T01:02:27.500Z,73162
2017-05-13T01:02:37.304Z,73163
2017-05-13T01:02:47.408Z,73164
2017-05-13T01:02:57.498Z,73166
2017-05-13T01:03:07.594Z,73163
2017-05-13T01:03:17.683Z,73165
2017-05-13T01:03:27.484Z,73164
2017-05-13T01:03:37.570Z,73165
2017-05-13T01:03:47.665Z,73167
2017-05-13T01:03:57.484Z,73165
2017-05-13T01:04:07.574Z,73167
2017-05-13T01:04:17.668Z,73165
2017-05-13T01:04:27.756Z,73166
2017-05-13T01:04:37.563Z,73166
2017-05-13T01:04:47.655Z,73164
2017-05-13T01:04:57.747Z,73164
2017-05-13T01:05:07.546Z,73164
2017-05-13T01:05:17.060Z,73165
2017-05-13T01:05:27.152Z,73164
2017-05-13T01:05:37.251Z,73164
2017-05-13T01:05:47.351Z,73163
2017-05-13T01:05:57.454Z,73164
2017-05-13T01:06:07.555Z,73163
2017-05-13T01:06:17.353Z,73161
2017-05-13T01:06:27.438Z,73160
2017-05-13T01:06:37.532Z,73162
2017-05-13T01:06:47.332Z,73160
2017-05-13T01:06:57.425Z,73164
2017-05-13T01:07:06.941Z,73166
2017-05-13T01:07:16.171Z,73163
2017-05-13T01:07:26.265Z,73165
2017-05-13T01:07:36.355Z,73162
2017-05-13T01:07:46.447Z,73167
2017-05-13T01:07:56.547Z,73167
2017-05-13T01:08:06.647Z,73166
2017-05-13T01:08:16.167Z,73168
2017-05-13T01:08:25.973Z,73165
2017-05-13T01:08:35.775Z,73167
2017-05-13T01:08:45.875Z,73165
2017-05-13T01:08:55.687Z,73166
2017-05-13T01:09:05.784Z,73166
2017-05-13T01:09:15.587Z,73163
2017-05-13T01:09:25.680Z,73165
2017-05-13T01:09:35.770Z,73161
2017-05-13T01:09:45.872Z,73166
2017-05-13T01:09:55.676Z,73165
2017-05-13T01:10:05.192Z,73163
2017-05-13T01:10:15.274Z,73166
2017-05-13T01:10:25.361Z,73164
2017-05-13T01:10:35.165Z,73160
2017-05-13T01:10:45.261Z,73160
2017-05-13T01:10:55.360Z,73160
2017-05-13T01:11:05.453Z,73161
2017-05-13T01:11:15.549Z,73161
2017-05-13T01:11:25.638Z,73164
2017-05-13T01:11:35.726Z,73162
2017-05-13T01:11:45.820Z,73163
2017-05-13T01:11:55.909Z,73161
2017-05-13T01:12:09.052Z,73161
2017-05-13T01:12:19.144Z,73164
2017-05-13T01:12:28.950Z,73166
2017-05-13T01:12:39.044Z,73164
2017-05-13T01:12:48.856Z,73166
2017-05-13T01:12:58.673Z,73164
2017-05-13T01:13:08.767Z,73166
2017-05-13T01:13:18.613Z,73167
2017-05-13T01:13:28.426Z,73164
2017-05-13T01:13:38.519Z,73167
2017-05-13T01:13:48.614Z,73162
2017-05-13T01:13:58.722Z,73161
2017-05-13T01:14:08.812Z,73165
2017-05-13T01:14:18.904Z,73164
2017-05-13T01:14:28.424Z,73162
2017-05-13T01:14:38.520Z,73164
2017-05-13T01:14:48.616Z,73161
2017-05-13T01:14:58.423Z,73161
2017-05-13T01:15:08.512Z,73160
2017-05-13T01:15:18.603Z,73161
2017-05-13T01:15:28.406Z,73165
2017-05-13T01:15:37.919Z,73163
2017-05-13T01:15:48.012Z,73163
2017-05-13T01:15:58.105Z,73166
2017-05-13T01:16:08.209Z,73167
2017-05-13T01:16:18.299Z,73164
2017-05-13T01:16:28.102Z,73162
2017-05-13T01:16:37.905Z,73160
2017-05-13T01:16:47.714Z,73161
2017-05-13T01:16:57.862Z,73162
2017-05-13T01:17:07.953Z,73161
2017-05-13T01:17:18.054Z,73160
2017-05-13T01:17:28.145Z,73158
2017-05-13T01:17:37.952Z,73162
2017-05-13T01:17:47.754Z,73163
2017-05-13T01:17:57.842Z,73157
2017-05-13T01:18:07.940Z,73162
2017-05-13T01:18:17.744Z,73159
2017-05-13T01:18:27.839Z,73157
2017-05-13T01:18:37.936Z,73154
2017-05-13T01:18:47.741Z,73157
2017-05-13T01:18:57.830Z,73157
2017-05-13T01:19:07.922Z,73159
2017-05-13T01:19:17.440Z,73157
2017-05-13T01:19:27.529Z,73158
2017-05-13T01:19:37.329Z,73161
2017-05-13T01:19:47.421Z,73161
2017-05-13T01:19:57.511Z,73160
2017-05-13T01:20:07.613Z,73161
2017-05-13T01:20:17.418Z,73162
2017-05-13T01:20:27.218Z,73163
2017-05-13T01:20:37.022Z,73163
2017-05-13T01:20:46.829Z,73163
2017-05-13T01:20:56.922Z,73163
2017-05-13T01:21:07.016Z,73164
2017-05-13T01:21:17.108Z,73164
2017-05-13T01:21:27.209Z,73163
2017-05-13T01:21:37.297Z,73167
2017-05-13T01:21:47.390Z,73166
2017-05-13T01:21:57.476Z,73164
2017-05-13T01:22:07.278Z,73164
2017-05-13T01:22:16.797Z,73162
2017-05-13T01:22:26.894Z,73164
2017-05-13T01:22:36.981Z,73166
2017-05-13T01:22:47.075Z,73164
2017-05-13T01:22:56.882Z,73165
2017-05-13T01:23:06.970Z,73163
2017-05-13T01:23:16.774Z,73164
2017-05-13T01:23:26.579Z,73162
2017-05-13T01:23:36.678Z,73166
2017-05-13T01:23:46.770Z,73166
2017-05-13T01:23:56.867Z,73162
2017-05-13T01:24:06.963Z,73163
2017-05-13T01:24:16.485Z,73161
2017-05-13T01:24:26.331Z,73160
2017-05-13T01:24:36.138Z,73163
2017-05-13T01:24:45.959Z,73158
2017-05-13T01:24:55.766Z,73154
2017-05-13T01:25:05.614Z,73159
2017-05-13T01:25:15.701Z,73152
2017-05-13T01:25:25.788Z,73156
2017-05-13T01:25:35.878Z,73161
2017-05-13T01:25:45.981Z,73162
2017-05-13T01:25:55.782Z,73161
2017-05-13T01:26:05.586Z,73160
2017-05-13T01:26:15.388Z,73161
2017-05-13T01:26:25.476Z,73163
2017-05-13T01:26:35.575Z,73161
2017-05-13T01:26:45.669Z,73162
2017-05-13T01:26:55.762Z,73160
2017-05-13T01:27:05.856Z,73163
2017-05-13T01:27:15.372Z,73166
2017-05-13T01:27:25.461Z,73166
2017-05-13T01:27:35.556Z,73166
2017-05-13T01:27:45.648Z,73168
2017-05-13T01:27:55.169Z,73172
2017-05-13T01:28:04.397Z,73168
2017-05-13T01:28:14.490Z,73165
2017-05-13T01:28:24.294Z,73166
2017-05-13T01:28:34.389Z,73166
2017-05-13T01:28:44.196Z,73163
2017-05-13T01:28:54.286Z,73168
2017-05-13T01:29:04.093Z,73166
2017-05-13T01:29:14.181Z,73167
2017-05-13T01:29:24.284Z,73163
2017-05-13T01:29:34.376Z,73166
2017-05-13T01:29:44.474Z,73169
2017-05-13T01:29:54.567Z,73168
2017-05-13T01:30:04.659Z,73166
2017-05-13T01:30:14.752Z,73164
2017-05-13T01:30:24.599Z,73168
2017-05-13T01:30:34.694Z,73169
2017-05-13T01:30:44.508Z,73166
2017-05-13T01:30:54.602Z,73166
2017-05-13T01:31:04.405Z,73169
2017-05-13T01:31:14.544Z,73165
2017-05-13T01:31:24.060Z,73169
2017-05-13T01:31:33.868Z,73168
2017-05-13T01:31:43.954Z,73167
2017-05-13T01:31:54.044Z,73167
2017-05-13T01:32:04.137Z,73170
2017-05-13T01:32:14.237Z,73169
2017-05-13T01:32:24.044Z,73169
2017-05-13T01:32:34.136Z,73169
2017-05-13T01:32:43.997Z,73168
2017-05-13T01:32:53.514Z,73168
2017-05-13T01:33:03.326Z,73168
2017-05-13T01:33:13.127Z,73167
2017-05-13T01:33:22.938Z,73166
2017-05-13T01:33:33.036Z,73168
2017-05-13T01:33:42.837Z,73166
2017-05-13T01:33:52.641Z,73167
2017-05-13T01:34:02.744Z,73169
2017-05-13T01:34:12.259Z,73169
2017-05-13T01:34:22.062Z,73167
2017-05-13T01:34:32.164Z,73170
2017-05-13T01:34:42.256Z,73171
2017-05-13T01:34:52.354Z,73168
2017-05-13T01:35:02.163Z,73167
2017-05-13T01:35:12.255Z,73169
2017-05-13T01:35:22.057Z,73170
2017-05-13T01:35:32.155Z,73168
2017-05-13T01:35:41.668Z,73169
2017-05-13T01:35:51.762Z,73169
2017-05-13T01:36:01.851Z,73167
2017-05-13T01:36:11.380Z,73170
2017-05-13T01:36:21.479Z,73168
2017-05-13T01:36:31.574Z,73169
2017-05-13T01:36:41.674Z,73165
2017-05-13T01:36:51.766Z,73167
2017-05-13T01:37:01.858Z,73167
2017-05-13T01:37:11.374Z,73164
2017-05-13T01:37:21.473Z,73162
2017-05-13T01:37:31.561Z,73166
2017-05-13T01:37:41.657Z,73167
2017-05-13T01:37:51.754Z,73168
2017-05-13T01:38:01.850Z,73164
2017-05-13T01:38:11.950Z,73166
2017-05-13T01:38:22.040Z,73163
2017-05-13T01:38:32.135Z,73169
2017-05-13T01:38:41.938Z,73166
2017-05-13T01:38:52.036Z,73172
2017-05-13T01:39:02.130Z,73168
2017-05-13T01:39:12.224Z,73169
2017-05-13T01:39:22.321Z,73164
2017-05-13T01:39:32.130Z,73170
2017-05-13T01:39:41.967Z,73170
2017-05-13T01:39:51.779Z,73170
2017-05-13T01:40:01.873Z,73166
2017-05-13T01:40:11.964Z,73169
2017-05-13T01:40:21.767Z,73173
2017-05-13T01:40:31.570Z,73171
2017-05-13T01:40:41.368Z,73170
2017-05-13T01:40:51.171Z,73167
2017-05-13T01:41:01.262Z,73169
2017-05-13T01:41:11.074Z,73169
2017-05-13T01:41:21.166Z,73171
2017-05-13T01:41:31.259Z,73171
2017-05-13T01:41:41.361Z,73173
2017-05-13T01:41:51.448Z,73173
2017-05-13T01:42:01.591Z,73171
2017-05-13T01:42:11.686Z,73168
2017-05-13T01:42:21.509Z,73169
2017-05-13T01:42:31.320Z,73171
2017-05-13T01:42:41.419Z,73171
2017-05-13T01:42:51.514Z,73169
2017-05-13T01:43:01.649Z,73171
2017-05-13T01:43:11.745Z,73169
2017-05-13T01:43:21.546Z,73172
2017-05-13T01:43:31.642Z,73172
2017-05-13T01:43:41.454Z,73170
2017-05-13T01:43:51.542Z,73174
2017-05-13T01:44:01.347Z,73173
2017-05-13T01:44:10.865Z,73172
2017-05-13T01:44:20.678Z,73172
2017-05-13T01:44:30.777Z,73171
2017-05-13T01:44:40.868Z,73172
2017-05-13T01:44:50.969Z,73175
2017-05-13T01:45:01.057Z,73174
2017-05-13T01:45:10.868Z,73175
2017-05-13T01:45:20.953Z,73175
2017-05-13T01:45:31.046Z,73173
2017-05-13T01:45:40.851Z,73176
2017-05-13T01:45:50.956Z,73179
2017-05-13T01:46:01.052Z,73179
2017-05-13T01:46:11.143Z,73174
2017-05-13T01:46:21.237Z,73176
2017-05-13T01:46:31.332Z,73173
2017-05-13T01:46:41.431Z,73177
2017-05-13T01:46:51.532Z,73177
2017-05-13T01:47:01.335Z,73178
2017-05-13T01:47:10.857Z,73178
2017-05-13T01:47:20.670Z,73175
2017-05-13T01:47:30.770Z,73178
2017-05-13T01:47:40.867Z,73178
2017-05-13T01:47:50.967Z,73178
2017-05-13T01:48:01.058Z,73178
2017-05-13T01:48:10.576Z,73179
2017-05-13T01:48:20.091Z,73176
2017-05-13T01:48:29.936Z,73179
2017-05-13T01:48:39.449Z,73177
2017-05-13T01:48:49.537Z,73178
2017-05-13T01:48:59.633Z,73173
2017-05-13T01:49:09.725Z,73173
2017-05-13T01:49:19.537Z,73179
2017-05-13T01:49:29.350Z,73181
2017-05-13T01:49:39.446Z,73181
2017-05-13T01:49:49.257Z,73177
2017-05-13T01:49:59.353Z,73180
2017-05-13T01:50:09.488Z,73183
2017-05-13T01:50:19.008Z,73183
2017-05-13T01:50:28.812Z,73182
2017-05-13T01:50:38.900Z,73181
2017-05-13T01:50:48.988Z,73182
2017-05-13T01:50:59.083Z,73180
2017-05-13T01:51:08.891Z,73181
2017-05-13T01:51:18.982Z,73182
2017-05-13T01:51:29.070Z,73183
2017-05-13T01:51:38.896Z,73182
2017-05-13T01:51:49.029Z,73178
2017-05-13T01:51:59.133Z,73182
2017-05-13T01:52:09.224Z,73180
2017-05-13T01:52:19.316Z,73182
2017-05-13T01:52:29.414Z,73182
2017-05-13T01:52:39.506Z,73176
2017-05-13T01:52:49.598Z,73179
2017-05-13T01:52:59.690Z,73179
2017-05-13T01:53:09.785Z,73179
2017-05-13T01:53:19.586Z,73178
2017-05-13T01:53:29.678Z,73178
2017-05-13T01:53:39.770Z,73177
2017-05-13T01:53:49.002Z,73179
2017-05-13T01:53:59.089Z,73177
2017-05-13T01:54:09.181Z,73177
2017-05-13T01:54:18.982Z,73177
2017-05-13T01:54:29.077Z,73181
2017-05-13T01:54:39.172Z,73176
2017-05-13T01:54:49.263Z,73177
2017-05-13T01:54:59.077Z,73177
2017-05-13T01:55:08.933Z,73174
2017-05-13T01:55:18.741Z,73177
2017-05-13T01:55:28.551Z,73175
2017-05-13T01:55:38.355Z,73176
2017-05-13T01:55:48.443Z,73176
2017-05-13T01:55:58.581Z,73176
2017-05-13T01:56:08.676Z,73175
2017-05-13T01:56:18.195Z,73174
2017-05-13T01:56:28.000Z,73178
2017-05-13T01:56:37.803Z,73175
2017-05-13T01:56:47.610Z,73177
2017-05-13T01:56:57.708Z,73171
2017-05-13T01:57:07.803Z,73174
2017-05-13T01:57:17.610Z,73174
2017-05-13T01:57:27.707Z,73171
2017-05-13T01:57:37.807Z,73171
2017-05-13T01:57:47.611Z,73174
2017-05-13T01:57:57.716Z,73175
2017-05-13T01:58:07.524Z,73175
2017-05-13T01:58:17.333Z,73176
2017-05-13T01:58:27.527Z,73174
2017-05-13T01:58:37.330Z,73171
2017-05-13T01:58:47.422Z,73175
2017-05-13T01:58:57.520Z,73172
2017-05-13T01:59:07.615Z,73173
2017-05-13T01:59:17.425Z,73170
2017-05-13T01:59:27.227Z,73173
2017-05-13T01:59:37.315Z,73173
2017-05-13T01:59:47.404Z,73172
2017-05-13T01:59:57.498Z,73173
2017-05-13T02:00:07.596Z,73174
2017-05-13T02:00:17.115Z,73176
2017-05-13T02:00:26.916Z,73175
2017-05-13T02:00:36.720Z,73175
2017-05-13T02:00:46.815Z,73175
2017-05-13T02:00:56.912Z,73175
2017-05-13T02:01:07.000Z,73177
2017-05-13T02:01:16.806Z,73179
2017-05-13T02:01:26.901Z,73180
2017-05-13T02:01:36.711Z,73177
2017-05-13T02:01:46.804Z,73178
2017-05-13T02:01:56.896Z,73179
2017-05-13T02:02:06.993Z,73175
2017-05-13T02:02:16.798Z,73176
2017-05-13T02:02:26.886Z,73177
2017-05-13T02:02:36.689Z,73177
2017-05-13T02:02:46.786Z,73178
2017-05-13T02:02:56.898Z,73178
2017-05-13T02:03:07.040Z,73176
2017-05-13T02:03:17.164Z,73179
2017-05-13T02:03:27.261Z,73179
2017-05-13T02:03:37.356Z,73177
2017-05-13T02:03:47.448Z,73177
2017-05-13T02:03:57.541Z,73179
2017-05-13T02:04:07.635Z,73177
2017-05-13T02:04:17.150Z,73176
2017-05-13T02:04:27.240Z,73176
2017-05-13T02:04:36.762Z,73181
2017-05-13T02:04:46.854Z,73179
2017-05-13T02:04:56.657Z,73181
2017-05-13T02:05:06.174Z,73182
2017-05-13T02:05:15.981Z,73181
2017-05-13T02:05:26.072Z,73181
2017-05-13T02:05:36.160Z,73179
2017-05-13T02:05:46.297Z,73179
2017-05-13T02:05:56.393Z,73179
2017-05-13T02:06:06.197Z,73183
2017-05-13T02:06:16.346Z,73181
2017-05-13T02:06:26.147Z,73181
2017-05-13T02:06:36.243Z,73184
2017-05-13T02:06:46.382Z,73181
2017-05-13T02:06:56.475Z,73185
2017-05-13T02:07:05.991Z,73184
2017-05-13T02:07:16.075Z,73182
2017-05-13T02:07:25.921Z,73181
2017-05-13T02:07:35.444Z,73183
2017-05-13T02:07:45.539Z,73181
2017-05-13T02:07:55.632Z,73182
2017-05-13T02:08:05.430Z,73183
2017-05-13T02:08:15.524Z,73183